Time;durP1;ratioP1;P1;durP2;ratioP2;P2;SDS_P1;SDS_P2;PMS_P1;PMS_P2;Temp;Humidity;BMP_temperature;BMP_pressure;BME280_temperature;BME280_humidity;BME280_pressure;Samples;Min_cycle;Max_cycle;Signal;HPM_P1;HPM_P2
2022/10/28 00:01:50;;;;;;;44.25;28.95;;;;;;;;;;5023528;28;20014;-84
2022/10/28 00:04:51;;;;;;;39.67;25.73;;;;;;;;;;5016570;28;20028;-83
2022/10/28 00:07:35;;;;;;;41.60;27.67;;;;;;;;;;5015108;28;20037;-83
2022/10/28 00:10:15;;;;;;;43.00;26.98;;;;;;;;;;5018274;28;20025;-84
2022/10/28 00:16:04;;;;;;;;;;;;;;;;;;;;;
2022/10/28 00:18:34;;;;;;;43.25;26.63;;;;;;;;;;5031876;28;20096;-84
2022/10/28 00:21:01;;;;;;;36.35;25.38;;;;;;;;;;5024809;28;20037;-85
2022/10/28 00:23:30;;;;;;;40.97;27.00;;;;;;;;;;5026895;28;20021;-83
2022/10/28 00:25:59;;;;;;;38.33;26.77;;;;;;;;;;5017477;28;20018;-85
2022/10/28 00:28:28;;;;;;;36.33;24.52;;;;;;;;;;5031188;28;20025;-84
2022/10/28 00:31:28;;;;;;;34.78;24.30;;;;;;;;;;5023757;28;20026;-84
2022/10/28 00:33:57;;;;;;;39.20;26.10;;;;;;;;;;5001359;28;20090;-84
2022/10/28 00:36:30;;;;;;;34.47;25.25;;;;;;;;;;5037332;28;20117;-85
2022/10/28 00:39:26;;;;;;;37.80;23.30;;;;;;;;;;5039337;28;20020;-84
2022/10/28 00:42:02;;;;;;;40.45;26.35;;;;;;;;;;5024094;28;20026;-84
2022/10/28 00:44:47;;;;;;;41.90;25.35;;;;;;;;;;5044218;28;20028;-84
2022/10/28 00:47:29;;;;;;;38.75;25.27;;;;;;;;;;5041617;28;20428;-84
2022/10/28 00:50:03;;;;;;;42.22;27.90;;;;;;;;;;5004002;28;20061;-84
2022/10/28 00:53:00;;;;;;;;;;;;;;;;;;;;;
2022/10/28 00:55:45;;;;;;;42.38;27.98;;;;;;;;;;5047055;28;20053;-84
2022/10/28 01:01:35;;;;;;;34.95;24.33;;;;;;;;;;5043717;28;20026;-84
2022/10/28 01:04:13;;;;;;;35.85;23.55;;;;;;;;;;5048695;28;20010;-86
2022/10/28 01:07:17;;;;;;;33.17;23.10;;;;;;;;;;5011211;28;20534;-83
2022/10/28 01:09:55;;;;;;;37.20;23.30;;;;;;;;;;4989216;28;20030;-83
2022/10/28 01:12:24;;;;;;;33.42;23.73;;;;;;;;;;4976968;28;20029;-83
2022/10/28 01:15:02;;;;;;;31.92;23.25;;;;;;;;;;5032521;28;20021;-83
2022/10/28 01:17:50;;;;;;;35.17;25.60;;;;;;;;;;5017714;28;20038;-84
2022/10/28 01:20:35;;;;;;;32.97;23.88;;;;;;;;;;5014324;28;20049;-85
2022/10/28 01:23:26;;;;;;;34.92;22.40;;;;;;;;;;5008067;28;20053;-83
2022/10/28 01:57:23;;;;;;;;;;;;;;;;;;;;;
2022/10/28 02:01:26;;;;;;;37.00;23.73;;;;;;;;;;5051016;28;20096;-81
2022/10/28 02:03:46;;;;;;;28.60;21.63;;;;;;;;;;4954927;29;20062;-83
2022/10/28 02:09:44;;;;;;;34.58;24.20;;;;;;;;;;5057632;28;20059;-82
2022/10/28 02:12:39;;;;;;;33.63;22.55;;;;;;;;;;5029314;28;20032;-83
2022/10/28 02:15:08;;;;;;;33.80;22.80;;;;;;;;;;5040607;28;20064;-83
2022/10/28 02:17:53;;;;;;;29.88;22.25;;;;;;;;;;5052636;28;20013;-85
2022/10/28 02:23:44;;;;;;;33.70;23.95;;;;;;;;;;5047131;28;20060;-82
2022/10/28 02:26:30;;;;;;;30.70;23.52;;;;;;;;;;5037946;28;20057;-81
2022/10/28 02:29:43;;;;;;;33.30;23.33;;;;;;;;;;5043004;28;20032;-83
2022/10/28 02:32:25;;;;;;;31.08;23.70;;;;;;;;;;5022576;28;20043;-84
2022/10/28 02:48:53;;;;;;;34.55;25.80;;;;;;;;;;5137676;23;20049;-80
2022/10/28 02:55:09;;;;;;;;;;;;;;;;;;;;;
2022/10/28 03:00:53;;;;;;;41.70;27.65;;;;;;;;;;5037259;23;20427;-76
2022/10/28 03:03:19;;;;;;;42.03;29.50;;;;;;;;;;5018649;28;20026;-76
2022/10/28 03:05:45;;;;;;;38.22;25.70;;;;;;;;;;5031165;28;20436;-74
2022/10/28 03:08:11;;;;;;;38.45;27.80;;;;;;;;;;5026323;28;20029;-74
2022/10/28 03:10:37;;;;;;;41.20;27.70;;;;;;;;;;5035933;28;20037;-75
2022/10/28 03:13:03;;;;;;;36.38;26.38;;;;;;;;;;5036728;28;20310;-74
2022/10/28 03:15:29;;;;;;;38.17;26.35;;;;;;;;;;5050612;28;20056;-74
2022/10/28 03:17:55;;;;;;;41.38;28.02;;;;;;;;;;5047359;28;20028;-74
2022/10/28 03:20:21;;;;;;;39.40;27.50;;;;;;;;;;5040150;28;20025;-75
2022/10/28 03:22:47;;;;;;;40.03;26.35;;;;;;;;;;5036597;28;20025;-75
2022/10/28 03:25:13;;;;;;;40.65;27.17;;;;;;;;;;5048089;28;20022;-75
2022/10/28 03:27:40;;;;;;;37.78;26.17;;;;;;;;;;5047374;28;20031;-76
2022/10/28 03:30:06;;;;;;;35.85;24.90;;;;;;;;;;5046518;28;20021;-77
2022/10/28 03:32:32;;;;;;;37.72;26.90;;;;;;;;;;5041978;28;20494;-75
2022/10/28 03:34:58;;;;;;;35.78;27.00;;;;;;;;;;5047133;28;20021;-76
2022/10/28 03:37:24;;;;;;;40.47;26.75;;;;;;;;;;5033723;28;20475;-75
2022/10/28 03:39:50;;;;;;;39.83;26.75;;;;;;;;;;5043565;28;20359;-75
2022/10/28 03:42:16;;;;;;;41.35;27.92;;;;;;;;;;5035814;28;20028;-75
2022/10/28 03:44:42;;;;;;;40.40;26.88;;;;;;;;;;5046640;28;20029;-73
2022/10/28 03:47:08;;;;;;;42.78;28.17;;;;;;;;;;5043527;28;20488;-74
2022/10/28 03:49:34;;;;;;;43.65;29.60;;;;;;;;;;5044528;28;20021;-74
2022/10/28 03:52:00;;;;;;;45.45;30.77;;;;;;;;;;5045689;28;20022;-75
2022/10/28 03:54:26;;;;;;;50.42;30.77;;;;;;;;;;5026877;28;20398;-75
2022/10/28 03:56:52;;;;;;;45.30;30.30;;;;;;;;;;5045789;28;20071;-75
2022/10/28 03:59:18;;;;;;;44.45;30.92;;;;;;;;;;5047077;28;20031;-75
2022/10/28 04:01:44;;;;;;;46.40;29.95;;;;;;;;;;5044376;28;20037;-74
2022/10/28 04:04:09;;;;;;;45.88;31.08;;;;;;;;;;5041912;28;20037;-76
2022/10/28 04:06:35;;;;;;;46.80;30.67;;;;;;;;;;5047807;28;20033;-76
2022/10/28 04:09:01;;;;;;;45.58;29.95;;;;;;;;;;5030432;28;20056;-76
2022/10/28 04:11:27;;;;;;;47.60;31.63;;;;;;;;;;5032830;28;20026;-76
2022/10/28 04:13:53;;;;;;;55.47;33.85;;;;;;;;;;5022247;28;20021;-75
2022/10/28 04:16:19;;;;;;;52.08;34.08;;;;;;;;;;5045399;28;20059;-73
2022/10/28 04:18:45;;;;;;;53.22;33.30;;;;;;;;;;5030963;28;20013;-76
2022/10/28 04:21:14;;;;;;;58.35;34.72;;;;;;;;;;5038777;28;20399;-75
2022/10/28 04:23:40;;;;;;;57.55;34.25;;;;;;;;;;5038534;28;20013;-74
2022/10/28 04:26:06;;;;;;;67.55;35.75;;;;;;;;;;5049521;28;20414;-76
2022/10/28 04:28:32;;;;;;;51.30;33.03;;;;;;;;;;5041978;28;20108;-75
2022/10/28 04:30:58;;;;;;;58.13;36.00;;;;;;;;;;5047382;28;20482;-75
2022/10/28 04:33:24;;;;;;;54.30;33.38;;;;;;;;;;5035992;28;20113;-75
2022/10/28 04:35:50;;;;;;;60.17;36.10;;;;;;;;;;5049223;28;20292;-76
2022/10/28 04:38:17;;;;;;;59.85;37.92;;;;;;;;;;5043740;28;20025;-75
2022/10/28 04:40:43;;;;;;;55.13;35.55;;;;;;;;;;5037491;28;20048;-76
2022/10/28 04:43:10;;;;;;;58.42;33.83;;;;;;;;;;5034939;28;20462;-76
2022/10/28 04:45:37;;;;;;;57.90;33.60;;;;;;;;;;5049379;28;20044;-75
2022/10/28 04:48:03;;;;;;;65.45;36.47;;;;;;;;;;5027771;28;20051;-76
2022/10/28 04:50:29;;;;;;;59.78;36.28;;;;;;;;;;5046223;28;20109;-77
2022/10/28 04:52:55;;;;;;;64.35;37.42;;;;;;;;;;5034525;28;20116;-76
2022/10/28 04:55:21;;;;;;;70.25;37.95;;;;;;;;;;5047299;28;20052;-76
2022/10/28 04:57:57;;;;;;;69.53;38.35;;;;;;;;;;5045526;28;20053;-76
2022/10/28 05:00:23;;;;;;;62.60;37.75;;;;;;;;;;5044554;28;20035;-76
2022/10/28 05:02:49;;;;;;;65.63;36.88;;;;;;;;;;5038101;28;20455;-76
2022/10/28 05:05:16;;;;;;;64.35;37.50;;;;;;;;;;5046325;28;20029;-74
2022/10/28 05:07:42;;;;;;;65.68;37.67;;;;;;;;;;5044951;28;20078;-76
2022/10/28 05:10:08;;;;;;;64.45;35.30;;;;;;;;;;5039270;28;20414;-75
2022/10/28 05:12:34;;;;;;;57.30;35.10;;;;;;;;;;5034538;28;20397;-77
2022/10/28 05:15:00;;;;;;;57.95;34.10;;;;;;;;;;5031838;28;20499;-75
2022/10/28 05:17:26;;;;;;;62.80;36.80;;;;;;;;;;5044263;28;20073;-75
2022/10/28 05:19:52;;;;;;;55.70;33.38;;;;;;;;;;5040477;28;20021;-75
2022/10/28 05:22:18;;;;;;;58.72;35.10;;;;;;;;;;5034032;28;20152;-75
2022/10/28 05:24:44;;;;;;;58.35;34.65;;;;;;;;;;5044660;28;20017;-75
2022/10/28 05:27:11;;;;;;;56.17;34.35;;;;;;;;;;5029878;28;20017;-75
2022/10/28 05:29:37;;;;;;;56.20;35.50;;;;;;;;;;5045317;28;20345;-75
2022/10/28 05:32:03;;;;;;;59.28;35.13;;;;;;;;;;5042647;28;20025;-75
2022/10/28 05:34:29;;;;;;;63.72;35.38;;;;;;;;;;5042476;28;20104;-74
2022/10/28 05:36:55;;;;;;;56.70;35.10;;;;;;;;;;5040032;28;20130;-76
2022/10/28 05:39:21;;;;;;;62.58;36.85;;;;;;;;;;5033757;28;20511;-77
2022/10/28 05:41:47;;;;;;;63.63;37.58;;;;;;;;;;5045571;28;20022;-75
2022/10/28 05:44:13;;;;;;;68.85;37.53;;;;;;;;;;5040501;28;20079;-76
2022/10/28 05:46:39;;;;;;;64.05;37.38;;;;;;;;;;5046597;28;20031;-76
2022/10/28 05:49:05;;;;;;;63.88;37.65;;;;;;;;;;5029475;28;20438;-77
2022/10/28 05:51:31;;;;;;;65.28;36.45;;;;;;;;;;5050012;28;20082;-72
2022/10/28 05:53:56;;;;;;;58.83;35.97;;;;;;;;;;5044490;28;20020;-74
2022/10/28 05:56:22;;;;;;;58.97;33.75;;;;;;;;;;5051423;28;20039;-76
2022/10/28 05:58:48;;;;;;;57.70;34.92;;;;;;;;;;5042999;28;20021;-75
2022/10/28 06:01:14;;;;;;;52.80;33.83;;;;;;;;;;5044884;28;20028;-76
2022/10/28 06:03:40;;;;;;;60.15;33.25;;;;;;;;;;5032998;28;20052;-75
2022/10/28 06:06:06;;;;;;;57.58;34.30;;;;;;;;;;5028005;28;20388;-76
2022/10/28 06:08:32;;;;;;;51.72;33.08;;;;;;;;;;5041893;28;20065;-76
2022/10/28 06:11:00;;;;;;;53.13;32.30;;;;;;;;;;5040960;28;20102;-75
2022/10/28 06:13:26;;;;;;;51.90;32.00;;;;;;;;;;5033717;28;20139;-75
2022/10/28 06:15:55;;;;;;;51.03;31.95;;;;;;;;;;5047348;28;20100;-74
2022/10/28 06:18:22;;;;;;;47.72;31.60;;;;;;;;;;5041916;28;20117;-76
2022/10/28 06:20:54;;;;;;;47.83;30.40;;;;;;;;;;5026779;28;20044;-75
2022/10/28 06:23:20;;;;;;;48.38;30.80;;;;;;;;;;5036515;28;20112;-75
2022/10/28 06:25:46;;;;;;;52.05;30.15;;;;;;;;;;5047446;28;20043;-75
2022/10/28 06:28:12;;;;;;;48.67;31.08;;;;;;;;;;5043280;28;20029;-75
2022/10/28 06:30:46;;;;;;;48.42;29.63;;;;;;;;;;5045344;28;20181;-73
2022/10/28 06:33:12;;;;;;;44.42;28.83;;;;;;;;;;5033009;28;20061;-74
2022/10/28 06:35:38;;;;;;;46.28;27.77;;;;;;;;;;5045856;28;20435;-73
2022/10/28 06:38:04;;;;;;;42.28;27.77;;;;;;;;;;5041034;28;20026;-77
2022/10/28 06:40:33;;;;;;;38.22;26.80;;;;;;;;;;5024433;28;20048;-74
2022/10/28 06:43:02;;;;;;;39.92;25.50;;;;;;;;;;5037476;28;20111;-74
2022/10/28 06:45:29;;;;;;;38.95;25.00;;;;;;;;;;5032443;28;20017;-72
2022/10/28 06:47:59;;;;;;;35.22;25.02;;;;;;;;;;5025439;28;20056;-72
2022/10/28 06:50:26;;;;;;;40.58;23.25;;;;;;;;;;5035753;28;20021;-72
2022/10/28 06:52:54;;;;;;;36.65;24.10;;;;;;;;;;5027462;28;20395;-78
2022/10/28 06:55:20;;;;;;;34.75;23.92;;;;;;;;;;5047213;28;20116;-76
2022/10/28 06:57:46;;;;;;;38.85;23.60;;;;;;;;;;5035057;28;20124;-74
2022/10/28 07:00:12;;;;;;;37.78;22.92;;;;;;;;;;5041831;28;20084;-76
2022/10/28 07:02:38;;;;;;;33.92;21.85;;;;;;;;;;5028746;28;20032;-74
2022/10/28 07:05:04;;;;;;;34.25;22.08;;;;;;;;;;5029711;28;20116;-74
2022/10/28 07:07:36;;;;;;;27.67;20.65;;;;;;;;;;5032062;28;20503;-75
2022/10/28 07:10:02;;;;;;;31.83;20.10;;;;;;;;;;5043775;28;20025;-74
2022/10/28 07:12:28;;;;;;;27.05;19.00;;;;;;;;;;5030122;28;20538;-74
2022/10/28 07:14:54;;;;;;;27.90;19.08;;;;;;;;;;5025748;28;20029;-74
2022/10/28 07:17:21;;;;;;;25.23;17.15;;;;;;;;;;5029690;28;20025;-75
2022/10/28 07:19:47;;;;;;;25.85;17.52;;;;;;;;;;5030507;28;20025;-75
2022/10/28 07:22:13;;;;;;;23.77;16.42;;;;;;;;;;5031191;28;20114;-75
2022/10/28 07:24:40;;;;;;;25.08;16.85;;;;;;;;;;5030484;28;20018;-73
2022/10/28 07:27:07;;;;;;;23.25;16.95;;;;;;;;;;5029703;28;20017;-75
2022/10/28 07:29:34;;;;;;;22.33;16.52;;;;;;;;;;5030550;28;20029;-75
2022/10/28 07:32:00;;;;;;;24.30;17.58;;;;;;;;;;5030989;28;20018;-74
2022/10/28 07:34:26;;;;;;;25.30;16.60;;;;;;;;;;5030785;28;20578;-73
2022/10/28 07:36:53;;;;;;;23.35;16.52;;;;;;;;;;5030279;28;20044;-74
2022/10/28 07:39:19;;;;;;;26.52;16.75;;;;;;;;;;5030364;28;20463;-74
2022/10/28 07:41:45;;;;;;;23.98;16.95;;;;;;;;;;5031862;28;20017;-74
2022/10/28 07:44:11;;;;;;;29.27;17.15;;;;;;;;;;5034268;28;20017;-76
2022/10/28 07:46:37;;;;;;;26.25;17.23;;;;;;;;;;5034595;28;20084;-74
2022/10/28 07:49:03;;;;;;;21.40;15.18;;;;;;;;;;5024367;28;20025;-74
2022/10/28 07:51:29;;;;;;;42.95;17.35;;;;;;;;;;5039289;28;20025;-74
2022/10/28 07:53:58;;;;;;;31.48;16.38;;;;;;;;;;5023294;28;20032;-74
2022/10/28 07:56:24;;;;;;;21.92;16.27;;;;;;;;;;5035454;28;20079;-75
2022/10/28 07:58:50;;;;;;;25.33;15.70;;;;;;;;;;5032602;28;20025;-76
2022/10/28 08:01:18;;;;;;;23.33;15.48;;;;;;;;;;5034010;28;20460;-75
2022/10/28 08:03:48;;;;;;;23.95;15.43;;;;;;;;;;5036565;28;20017;-75
2022/10/28 08:06:16;;;;;;;23.98;14.07;;;;;;;;;;5031834;28;20430;-74
2022/10/28 08:08:42;;;;;;;21.90;14.90;;;;;;;;;;5046085;28;20028;-74
2022/10/28 08:11:09;;;;;;;17.83;13.15;;;;;;;;;;5027983;28;20076;-75
2022/10/28 08:13:35;;;;;;;20.73;13.57;;;;;;;;;;5036235;28;20030;-73
2022/10/28 08:16:01;;;;;;;20.83;14.13;;;;;;;;;;5042345;28;20021;-74
2022/10/28 08:18:27;;;;;;;21.45;13.65;;;;;;;;;;5043132;28;20022;-73
2022/10/28 08:20:53;;;;;;;21.70;13.77;;;;;;;;;;5044414;28;20362;-73
2022/10/28 08:23:19;;;;;;;21.63;13.40;;;;;;;;;;5041678;28;20018;-74
2022/10/28 08:25:49;;;;;;;17.73;12.60;;;;;;;;;;5047111;28;20021;-75
2022/10/28 08:28:15;;;;;;;22.00;12.43;;;;;;;;;;5036376;28;20025;-74
2022/10/28 08:30:41;;;;;;;19.52;12.60;;;;;;;;;;5050199;28;20034;-74
2022/10/28 08:33:07;;;;;;;20.90;12.73;;;;;;;;;;5040624;28;20026;-75
2022/10/28 08:35:34;;;;;;;21.38;13.32;;;;;;;;;;5051265;28;20033;-74
2022/10/28 08:38:00;;;;;;;16.90;12.05;;;;;;;;;;5037517;28;20027;-73
2022/10/28 08:40:49;;;;;;;25.42;12.18;;;;;;;;;;5030200;28;20032;-72
2022/10/28 08:43:28;;;;;;;17.88;12.07;;;;;;;;;;5005790;28;20037;-74
2022/10/28 08:46:15;;;;;;;23.35;12.68;;;;;;;;;;5043078;28;20104;-73
2022/10/28 08:48:41;;;;;;;19.52;11.82;;;;;;;;;;5017068;28;20116;-75
2022/10/28 08:51:18;;;;;;;18.45;11.82;;;;;;;;;;5035272;28;20104;-74
2022/10/28 08:53:47;;;;;;;16.38;11.55;;;;;;;;;;5031145;28;20365;-74
2022/10/28 08:56:15;;;;;;;18.38;12.38;;;;;;;;;;5031874;28;20103;-75
2022/10/28 08:58:43;;;;;;;16.73;11.52;;;;;;;;;;5030530;28;20036;-73
2022/10/28 09:04:37;;;;;;;26.42;12.60;;;;;;;;;;4984376;28;20037;-79
2022/10/28 09:07:20;;;;;;;15.68;11.13;;;;;;;;;;5012996;28;20039;-78
2022/10/28 09:13:32;;;;;;;15.95;10.88;;;;;;;;;;4935695;29;20032;-79
2022/10/28 09:16:02;;;;;;;18.25;11.07;;;;;;;;;;4986011;28;20116;-79
2022/10/28 09:18:47;;;;;;;20.08;10.77;;;;;;;;;;5054056;28;20037;-80
2022/10/28 09:21:21;;;;;;;14.93;10.32;;;;;;;;;;5036911;28;20494;-80
2022/10/28 09:24:06;;;;;;;17.80;10.82;;;;;;;;;;5035423;28;20025;-80
2022/10/28 09:26:32;;;;;;;15.68;9.68;;;;;;;;;;5052833;28;20079;-79
2022/10/28 09:29:20;;;;;;;16.17;10.80;;;;;;;;;;5035010;28;20044;-81
2022/10/28 09:32:07;;;;;;;12.88;10.80;;;;;;;;;;5033318;28;20534;-80
2022/10/28 09:34:40;;;;;;;16.17;10.52;;;;;;;;;;5032610;28;20195;-80
2022/10/28 09:37:25;;;;;;;14.77;9.52;;;;;;;;;;5048483;28;20053;-78
2022/10/28 09:46:41;;;;;;;14.70;9.98;;;;;;;;;;4972922;28;20045;-82
2022/10/28 09:49:27;;;;;;;17.67;9.95;;;;;;;;;;4960527;28;20509;-81
2022/10/28 09:51:53;;;;;;;19.00;11.15;;;;;;;;;;5019602;28;20045;-81
2022/10/28 09:54:49;;;;;;;12.40;9.18;;;;;;;;;;5023225;28;20388;-81
2022/10/28 09:57:48;;;;;;;;;;;;;;;;;;;;;
2022/10/28 10:00:26;;;;;;;17.05;9.98;;;;;;;;;;5047651;22;20102;-82
2022/10/28 10:03:06;;;;;;;;;;;;;;;;;;;;;
2022/10/28 10:05:37;;;;;;;10.97;8.87;;;;;;;;;;5036202;28;20109;-80
2022/10/28 10:08:25;;;;;;;12.45;8.95;;;;;;;;;;5038089;28;20331;-81
2022/10/28 10:11:10;;;;;;;14.13;9.40;;;;;;;;;;5027387;28;20021;-81
2022/10/28 10:13:44;;;;;;;15.18;9.57;;;;;;;;;;5018483;28;20045;-80
2022/10/28 10:19:54;;;;;;;;;;;;;;;;;;;;;
2022/10/28 10:29:44;;;;;;;10.43;8.70;;;;;;;;;;4929411;29;20024;-81
2022/10/28 10:32:12;;;;;;;12.32;9.30;;;;;;;;;;4909198;29;20038;-81
2022/10/28 11:21:10;;;;;;;17.40;9.20;;;;;;;;;;6124766;22;20533;-76
2022/10/28 11:23:36;;;;;;;13.65;9.43;;;;;;;;;;5032308;28;20100;-75
2022/10/28 11:26:04;;;;;;;12.00;8.82;;;;;;;;;;5015176;28;20025;-75
2022/10/28 11:28:32;;;;;;;12.43;9.25;;;;;;;;;;5031504;28;20044;-75
2022/10/28 11:31:01;;;;;;;14.27;9.27;;;;;;;;;;5033074;28;20024;-75
2022/10/28 11:41:47;;;;;;;15.02;10.15;;;;;;;;;;1841527;22;24223617;-81
2022/10/28 11:44:36;;;;;;;14.70;9.57;;;;;;;;;;5032213;22;20515;-82
2022/10/28 11:47:16;;;;;;;12.73;9.02;;;;;;;;;;5056977;28;20013;-81
2022/10/28 11:50:11;;;;;;;;;;;;;;;;;;;;;
2022/10/28 11:53:04;;;;;;;12.40;9.52;;;;;;;;;;5048640;28;20163;-81
2022/10/28 11:58:48;;;;;;;13.75;9.57;;;;;;;;;;5060304;28;20119;-82
2022/10/28 12:07:45;;;;;;;15.65;9.75;;;;;;;;;;5040508;22;20063;-74
2022/10/28 12:10:29;;;;;;;21.25;9.38;;;;;;;;;;5033402;28;20032;-74
2022/10/28 12:13:14;;;;;;;15.57;10.30;;;;;;;;;;5033768;28;20033;-79
2022/10/28 12:15:46;;;;;;;14.60;10.13;;;;;;;;;;5027343;28;20079;-75
2022/10/28 12:21:09;;;;;;;14.48;8.57;;;;;;;;;;5226745;22;20132;-75
2022/10/28 12:23:37;;;;;;;15.02;10.32;;;;;;;;;;5050972;28;20051;-75
2022/10/28 12:36:14;;;;;;;14.57;10.82;;;;;;;;;;4988923;28;20465;-79
2022/10/28 12:39:07;;;;;;;14.20;10.43;;;;;;;;;;4989768;28;20045;-78
2022/10/28 12:41:45;;;;;;;19.92;12.15;;;;;;;;;;5011871;28;20087;-78
2022/10/28 12:44:30;;;;;;;;;;;;;;;;;;;;;
2022/10/28 12:47:08;;;;;;;17.33;10.93;;;;;;;;;;5032603;28;20024;-78
2022/10/28 12:56:22;;;;;;;13.50;9.95;;;;;;;;;;5028281;28;20112;-78
2022/10/28 13:11:47;;;;;;;15.10;11.48;;;;;;;;;;4971400;28;20050;-78
2022/10/28 13:14:54;;;;;;;16.35;11.07;;;;;;;;;;5019326;28;20064;-77
2022/10/28 13:17:43;;;;;;;16.80;11.68;;;;;;;;;;4969828;28;20142;-77
2022/10/28 13:20:30;;;;;;;16.83;11.50;;;;;;;;;;4967277;28;20023;-76
2022/10/28 13:23:15;;;;;;;16.95;11.70;;;;;;;;;;5011339;28;20054;-78
2022/10/28 13:25:51;;;;;;;16.42;10.90;;;;;;;;;;5030759;28;20025;-78
2022/10/28 13:31:22;;;;;;;14.23;10.15;;;;;;;;;;5029344;28;20033;-77
2022/10/28 13:33:55;;;;;;;16.67;11.13;;;;;;;;;;5030242;28;20057;-75
2022/10/28 13:36:39;;;;;;;18.20;10.80;;;;;;;;;;5030186;28;20051;-77
2022/10/28 13:39:39;;;;;;;25.30;11.00;;;;;;;;;;5024209;28;20506;-79
2022/10/28 13:42:16;;;;;;;15.40;10.90;;;;;;;;;;5030718;28;20038;-78
2022/10/28 13:44:52;;;;;;;15.57;10.82;;;;;;;;;;5031636;28;20077;-78
2022/10/28 13:47:54;;;;;;;16.45;10.93;;;;;;;;;;5026445;28;20056;-78
2022/10/28 13:50:24;;;;;;;18.88;11.40;;;;;;;;;;5029763;28;20024;-78
2022/10/28 13:53:09;;;;;;;17.92;11.10;;;;;;;;;;5032220;28;20021;-78
2022/10/28 13:55:41;;;;;;;15.90;10.63;;;;;;;;;;5028188;28;20053;-78
2022/10/28 13:58:23;;;;;;;17.77;10.88;;;;;;;;;;5028467;28;20108;-78
2022/10/28 14:00:55;;;;;;;17.77;10.77;;;;;;;;;;5031978;28;20013;-79
2022/10/28 14:03:54;;;;;;;;;;;;;;;;;;;;;
2022/10/28 14:06:53;;;;;;;19.52;10.38;;;;;;;;;;5019486;28;20025;-79
2022/10/28 14:10:10;;;;;;;;;;;;;;;;;;;;;
2022/10/28 14:26:24;;;;;;;;;;;;;;;;;;;;;
2022/10/28 15:26:26;;;;;;;23.65;13.40;;;;;;;;;;5026117;28;20096;-79
2022/10/28 18:19:14;;;;;;;;;;;;;;;;;;;;;
2022/10/28 18:34:59;;;;;;;27.35;18.05;;;;;;;;;;4927807;29;20111;-80
2022/10/28 18:38:04;;;;;;;;;;;;;;;;;;;;;
2022/10/28 18:40:43;;;;;;;29.58;17.42;;;;;;;;;;4938367;29;20123;-78
2022/10/28 18:43:28;;;;;;;;;;;;;;;;;;;;;
2022/10/28 18:49:44;;;;;;;;;;;;;;;;;;;;;
2022/10/28 18:56:06;;;;;;;;;;;;;;;;;;;;;
2022/10/28 19:14:39;;;;;;;;;;;;;;;;;;;;;
2022/10/28 19:31:48;;;;;;;;;;;;;;;;;;;;;
2022/10/28 19:55:54;;;;;;;24.38;16.02;;;;;;;;;;5052637;28;20041;-80
2022/10/28 19:58:37;;;;;;;21.60;15.27;;;;;;;;;;5082113;22;20107;-80
2022/10/28 20:04:38;;;;;;;;;;;;;;;;;;;;;
2022/10/28 20:07:29;;;;;;;23.33;15.10;;;;;;;;;;5020265;28;20105;-79
2022/10/28 20:10:30;;;;;;;;;;;;;;;;;;;;;
2022/10/28 20:16:44;;;;;;;23.35;15.52;;;;;;;;;;4935341;29;20024;-78
2022/10/28 20:32:03;;;;;;;22.70;15.23;;;;;;;;;;4940310;29;20535;-79
2022/10/28 20:34:34;;;;;;;23.00;15.98;;;;;;;;;;5004408;28;20042;-80
2022/10/28 20:40:50;;;;;;;25.58;17.27;;;;;;;;;;5014138;28;20372;-78
2022/10/28 20:43:26;;;;;;;26.30;17.02;;;;;;;;;;4992052;28;20125;-79
2022/10/28 20:46:04;;;;;;;27.20;17.05;;;;;;;;;;4992747;28;20031;-79
2022/10/28 20:48:52;;;;;;;29.25;18.55;;;;;;;;;;5007910;28;20045;-80
2022/10/28 20:51:34;;;;;;;28.08;17.98;;;;;;;;;;5015805;28;20081;-83
2022/10/28 20:54:20;;;;;;;;;;;;;;;;;;;;;
2022/10/28 20:57:15;;;;;;;24.77;17.88;;;;;;;;;;5038216;28;20029;-85
2022/10/28 21:03:16;;;;;;;31.08;18.02;;;;;;;;;;5015685;28;20085;-80
2022/10/28 21:15:51;;;;;;;32.20;17.20;;;;;;;;;;4934126;29;20028;-78
2022/10/28 21:21:27;;;;;;;26.27;16.95;;;;;;;;;;5009194;28;20128;-81
2022/10/28 21:24:03;;;;;;;23.38;16.05;;;;;;;;;;5037352;28;20364;-79
2022/10/28 21:26:29;;;;;;;24.63;17.08;;;;;;;;;;5018968;28;20026;-81
2022/10/28 21:28:55;;;;;;;25.55;16.75;;;;;;;;;;5035774;28;20021;-81
2022/10/28 21:34:49;;;;;;;32.33;18.15;;;;;;;;;;5011089;28;20034;-81
2022/10/28 21:46:01;;;;;;;27.27;16.80;;;;;;;;;;5066792;28;20049;-78
2022/10/28 21:48:37;;;;;;;26.65;18.40;;;;;;;;;;5047077;28;20096;-78
2022/10/28 21:51:08;;;;;;;25.63;17.98;;;;;;;;;;5036025;28;20025;-79
2022/10/28 21:53:46;;;;;;;27.27;18.67;;;;;;;;;;5053225;28;20027;-79
2022/10/28 21:56:17;;;;;;;30.10;18.35;;;;;;;;;;5032893;28;20021;-77
2022/10/28 22:02:09;;;;;;;;;;;;;;;;;;;;;
2022/10/28 22:26:04;;;;;;;29.80;19.85;;;;;;;;;;1497248;26;20552;-80
2022/10/28 22:31:32;;;;;;;34.03;19.63;;;;;;;;;;5063617;28;20024;-79
2022/10/28 22:34:20;;;;;;;39.90;20.23;;;;;;;;;;5079835;28;20020;-79
2022/10/28 22:36:56;;;;;;;30.48;18.27;;;;;;;;;;5067784;28;20017;-77
2022/10/28 22:39:22;;;;;;;35.13;19.77;;;;;;;;;;5056208;28;20033;-79
2022/10/28 22:41:54;;;;;;;28.73;19.00;;;;;;;;;;5063579;28;20025;-77
2022/10/28 22:44:21;;;;;;;27.70;19.60;;;;;;;;;;5045367;28;20036;-79
2022/10/28 22:46:54;;;;;;;29.02;19.73;;;;;;;;;;5057041;28;20075;-78
2022/10/28 22:49:26;;;;;;;29.65;20.20;;;;;;;;;;5049878;28;20101;-78
2022/10/28 22:52:12;;;;;;;32.40;19.17;;;;;;;;;;5043268;28;20146;-77
2022/10/28 22:54:44;;;;;;;31.10;20.85;;;;;;;;;;5059924;28;20102;-78
2022/10/28 22:59:59;;;;;;;28.95;20.42;;;;;;;;;;5038496;23;20365;-77
2022/10/28 23:02:29;;;;;;;31.80;20.42;;;;;;;;;;5025534;28;20029;-80
2022/10/28 23:04:55;;;;;;;32.00;20.80;;;;;;;;;;5021232;28;20041;-78
2022/10/28 23:07:22;;;;;;;29.08;19.65;;;;;;;;;;4996174;28;20014;-77
2022/10/28 23:09:48;;;;;;;32.40;19.88;;;;;;;;;;4988017;28;20104;-76
2022/10/28 23:12:23;;;;;;;30.77;19.92;;;;;;;;;;4990537;28;20010;-74
2022/10/28 23:14:49;;;;;;;28.38;19.67;;;;;;;;;;5008694;28;20104;-76
2022/10/28 23:17:15;;;;;;;35.65;21.25;;;;;;;;;;4995849;28;20112;-77
2022/10/28 23:19:41;;;;;;;35.30;20.88;;;;;;;;;;5014475;28;20029;-76
2022/10/28 23:22:07;;;;;;;32.38;21.08;;;;;;;;;;4999742;28;20400;-76
2022/10/28 23:24:32;;;;;;;36.45;20.13;;;;;;;;;;5006892;28;20064;-77
2022/10/28 23:26:58;;;;;;;32.33;21.20;;;;;;;;;;5009172;28;20024;-75
2022/10/28 23:29:24;;;;;;;39.03;20.42;;;;;;;;;;5022868;28;20041;-78
2022/10/28 23:31:50;;;;;;;31.30;19.55;;;;;;;;;;5004002;28;20052;-78
2022/10/28 23:34:16;;;;;;;29.67;19.48;;;;;;;;;;4996977;28;20026;-79
2022/10/28 23:36:42;;;;;;;29.60;20.80;;;;;;;;;;5009544;28;20022;-79
2022/10/28 23:39:08;;;;;;;29.48;18.77;;;;;;;;;;5013811;28;20033;-78
2022/10/28 23:41:34;;;;;;;30.73;18.83;;;;;;;;;;5003009;28;20030;-78
2022/10/28 23:44:00;;;;;;;28.10;17.45;;;;;;;;;;5015328;28;20097;-76
2022/10/28 23:46:26;;;;;;;31.35;18.30;;;;;;;;;;5010077;28;20041;-78
2022/10/28 23:48:53;;;;;;;28.08;18.40;;;;;;;;;;5011813;28;20022;-76
2022/10/28 23:51:19;;;;;;;25.92;16.75;;;;;;;;;;5002159;28;20049;-77
2022/10/28 23:53:45;;;;;;;28.02;17.83;;;;;;;;;;5013233;28;20018;-77
2022/10/28 23:56:11;;;;;;;30.77;18.63;;;;;;;;;;5006693;28;20459;-77
2022/10/28 23:58:37;;;;;;;29.65;18.20;;;;;;;;;;5010756;28;20026;-77
